Time;durP1;ratioP1;P1;durP2;ratioP2;P2;SDS_P1;SDS_P2;PMS_P1;PMS_P2;Temp;Humidity;BMP_temperature;BMP_pressure;BME280_temperature;BME280_humidity;BME280_pressure;Samples;Min_cycle;Max_cycle;Signal;HPM_P1;HPM_P2
2021/12/21 00:01:18;;;;;;;15.33;7.43;;;0.80;94.20;;;;;;5060959;28;20479;-47
2021/12/21 00:03:45;;;;;;;14.03;6.57;;;0.70;94.20;;;;;;5072609;28;21316;-47
2021/12/21 00:06:11;;;;;;;20.80;7.90;;;0.70;94.40;;;;;;5061783;28;21891;-47
2021/12/21 00:08:38;;;;;;;16.10;7.30;;;0.70;94.60;;;;;;5065095;28;20495;-47
2021/12/21 00:11:05;;;;;;;18.70;8.43;;;0.70;95.00;;;;;;5078185;28;20470;-47
2021/12/21 00:13:56;;;;;;;14.53;6.97;;;0.70;94.90;;;;;;5069009;28;20565;-47
2021/12/21 00:19:24;;;;;;;19.20;7.67;;;0.60;95.00;;;;;;5049910;28;20544;-47
2021/12/21 00:21:56;;;;;;;17.47;7.23;;;0.70;95.10;;;;;;5071330;28;20492;-47
2021/12/21 00:24:30;;;;;;;10.53;6.97;;;0.70;95.00;;;;;;5068634;28;20571;-49
2021/12/21 00:26:57;;;;;;;12.60;6.17;;;0.80;95.10;;;;;;5062389;28;20910;-47
2021/12/21 00:29:25;;;;;;;19.33;6.43;;;0.80;94.90;;;;;;5074370;28;20998;-47
2021/12/21 00:31:51;;;;;;;21.57;7.73;;;0.80;95.00;;;;;;5072379;28;20476;-47
2021/12/21 00:34:18;;;;;;;11.90;7.80;;;0.90;94.80;;;;;;5069672;28;20577;-47
2021/12/21 00:36:46;;;;;;;17.30;7.37;;;0.80;94.20;;;;;;5063191;28;20534;-47
2021/12/21 00:39:15;;;;;;;12.47;7.33;;;0.80;94.10;;;;;;5068368;28;21086;-47
2021/12/21 00:41:42;;;;;;;18.90;7.17;;;0.80;94.50;;;;;;5063187;28;20966;-47
2021/12/21 00:44:09;;;;;;;27.20;7.40;;;0.80;94.60;;;;;;5085122;28;20822;-47
2021/12/21 00:46:38;;;;;;;12.70;7.20;;;0.80;94.70;;;;;;5074108;28;20486;-48
2021/12/21 00:49:13;;;;;;;26.50;7.90;;;0.80;94.60;;;;;;5079887;28;20573;-47
2021/12/21 00:51:42;;;;;;;30.00;8.27;;;0.80;94.50;;;;;;5049553;28;20529;-47
2021/12/21 00:54:09;;;;;;;17.10;6.70;;;0.80;94.50;;;;;;5074547;28;20480;-47
2021/12/21 00:56:35;;;;;;;16.80;7.77;;;0.70;94.30;;;;;;5082394;28;20503;-48
2021/12/21 00:59:03;;;;;;;14.33;5.97;;;0.80;94.20;;;;;;5077722;28;20492;-47
2021/12/21 01:01:29;;;;;;;13.43;7.63;;;0.70;94.20;;;;;;5073947;28;20472;-47
2021/12/21 01:03:59;;;;;;;16.63;6.03;;;0.60;94.30;;;;;;5078618;28;20496;-47
2021/12/21 01:06:38;;;;;;;15.10;6.77;;;0.60;94.40;;;;;;5063407;28;21016;-48
2021/12/21 01:09:11;;;;;;;15.90;5.93;;;0.60;94.40;;;;;;5079913;28;21152;-47
2021/12/21 01:11:42;;;;;;;13.30;6.77;;;0.60;94.50;;;;;;5077539;28;21332;-48
2021/12/21 01:14:35;;;;;;;20.43;6.33;;;0.70;94.50;;;;;;5069821;28;20893;-47
2021/12/21 01:17:07;;;;;;;11.33;4.90;;;0.70;94.50;;;;;;5073792;28;20481;-48
2021/12/21 01:19:39;;;;;;;12.17;5.17;;;0.70;94.60;;;;;;5067761;28;20483;-48
2021/12/21 01:22:15;;;;;;;17.03;6.10;;;0.70;94.90;;;;;;5097587;28;21035;-47
2021/12/21 01:24:57;;;;;;;12.80;5.73;;;0.70;94.80;;;;;;5082498;28;20591;-47
2021/12/21 01:27:34;;;;;;;21.23;6.80;;;0.70;94.70;;;;;;5077424;28;20475;-47
2021/12/21 01:30:10;;;;;;;17.57;6.93;;;0.60;94.70;;;;;;5069132;28;20550;-47
2021/12/21 01:32:57;;;;;;;9.30;5.60;;;0.60;94.60;;;;;;5078189;28;20568;-49
2021/12/21 01:35:31;;;;;;;16.10;5.50;;;0.50;94.60;;;;;;5073045;28;20477;-47
2021/12/21 01:38:03;;;;;;;12.47;5.43;;;0.50;94.80;;;;;;5079296;28;20563;-47
2021/12/21 01:40:44;;;;;;;13.03;5.77;;;0.50;94.80;;;;;;5054314;28;20490;-47
2021/12/21 01:43:21;;;;;;;18.27;6.77;;;0.50;95.00;;;;;;5075933;28;20487;-47
2021/12/21 01:51:19;;;;;;;10.40;4.87;;;0.60;94.60;;;;;;5078456;28;21053;-47
2021/12/21 01:53:47;;;;;;;14.10;5.70;;;0.50;94.50;;;;;;5080424;28;20706;-47
2021/12/21 01:56:15;;;;;;;13.30;5.47;;;0.50;94.30;;;;;;5075242;28;21127;-47
2021/12/21 01:58:42;;;;;;;10.60;5.30;;;0.50;94.50;;;;;;5077173;28;20484;-47
2021/12/21 02:01:11;;;;;;;10.53;4.83;;;0.50;94.60;;;;;;5083985;28;20769;-47
2021/12/21 02:03:39;;;;;;;22.57;5.60;;;0.50;94.70;;;;;;5080562;28;20973;-47
2021/12/21 02:06:06;;;;;;;16.80;6.70;;;0.50;94.60;;;;;;5079659;28;20491;-47
2021/12/21 02:08:34;;;;;;;11.03;6.10;;;0.50;94.30;;;;;;5081160;28;20472;-52
2021/12/21 02:11:04;;;;;;;15.53;5.90;;;0.40;94.40;;;;;;5078123;28;20483;-47
2021/12/21 02:13:33;;;;;;;13.20;5.50;;;0.40;94.30;;;;;;5078444;28;20490;-47
2021/12/21 02:16:00;;;;;;;16.77;6.60;;;0.40;94.40;;;;;;5086601;28;20476;-47
2021/12/21 02:18:43;;;;;;;11.70;5.60;;;0.30;94.30;;;;;;5081277;28;20488;-47
2021/12/21 02:21:21;;;;;;;7.50;5.30;;;0.30;94.20;;;;;;5076007;28;21199;-46
2021/12/21 02:23:50;;;;;;;10.60;5.53;;;0.30;94.30;;;;;;5079173;28;20499;-47
2021/12/21 02:26:35;;;;;;;10.07;5.47;;;0.20;94.20;;;;;;5051128;28;20504;-47
2021/12/21 02:31:47;;;;;;;9.53;4.50;;;0.20;94.30;;;;;;5078279;28;20465;-47
2021/12/21 02:34:14;;;;;;;10.53;5.90;;;0.10;94.30;;;;;;5078949;28;20487;-47
2021/12/21 02:36:44;;;;;;;15.47;7.30;;;0.10;94.20;;;;;;5079744;28;20495;-47
2021/12/21 02:39:12;;;;;;;12.63;4.87;;;0.10;94.10;;;;;;5074114;28;22108;-47
2021/12/21 02:41:40;;;;;;;10.33;4.93;;;0.00;93.90;;;;;;5094574;28;20489;-47
2021/12/21 02:44:07;;;;;;;13.87;5.13;;;0.00;93.90;;;;;;5077311;28;20834;-47
2021/12/21 02:46:35;;;;;;;4.70;4.10;;;0.00;93.70;;;;;;5073584;28;20485;-47
2021/12/21 02:49:02;;;;;;;26.13;5.47;;;-0.10;93.60;;;;;;5077373;28;21058;-47
2021/12/21 02:51:29;;;;;;;12.43;4.23;;;-0.10;93.90;;;;;;5063655;28;20512;-47
2021/12/21 02:53:57;;;;;;;8.30;3.97;;;-0.10;94.00;;;;;;5091975;28;21044;-48
2021/12/21 02:56:24;;;;;;;11.27;5.10;;;-0.10;94.10;;;;;;5049939;28;20479;-47
2021/12/21 02:58:50;;;;;;;24.43;4.80;;;-0.10;94.20;;;;;;5083236;28;20499;-47
2021/12/21 03:01:18;;;;;;;8.20;4.60;;;-0.10;94.20;;;;;;5075034;28;21009;-47
2021/12/21 03:03:44;;;;;;;5.40;4.30;;;-0.10;93.90;;;;;;5080292;28;20727;-47
2021/12/21 03:06:27;;;;;;;10.90;4.90;;;-0.10;94.00;;;;;;5079639;28;20482;-47
2021/12/21 03:08:57;;;;;;;11.50;4.83;;;-0.10;94.10;;;;;;5073375;28;20889;-47
2021/12/21 03:11:48;;;;;;;9.13;4.40;;;-0.10;94.10;;;;;;5077147;28;20515;-47
2021/12/21 03:14:15;;;;;;;7.97;3.87;;;-0.10;94.20;;;;;;5082203;28;20543;-47
2021/12/21 03:16:42;;;;;;;8.30;4.10;;;-0.10;94.30;;;;;;5051486;28;20479;-47
2021/12/21 03:19:11;;;;;;;8.80;4.83;;;-0.10;94.30;;;;;;5091449;28;20476;-47
2021/12/21 03:21:39;;;;;;;6.53;4.40;;;0.00;94.30;;;;;;5070064;28;20492;-47
2021/12/21 03:24:07;;;;;;;12.43;5.00;;;0.00;94.10;;;;;;5095379;28;20493;-47
2021/12/21 03:26:36;;;;;;;7.77;4.90;;;-0.10;94.10;;;;;;5074576;28;20563;-47
2021/12/21 03:29:03;;;;;;;9.43;5.20;;;-0.10;93.90;;;;;;5073118;28;20892;-46
2021/12/21 03:31:30;;;;;;;12.40;4.60;;;-0.10;94.10;;;;;;5089117;28;20477;-47
2021/12/21 03:33:56;;;;;;;12.17;5.20;;;-0.10;93.90;;;;;;5080480;28;20496;-47
2021/12/21 03:36:23;;;;;;;10.20;4.63;;;-0.20;93.90;;;;;;5078605;28;20480;-47
2021/12/21 03:38:57;;;;;;;6.73;3.77;;;-0.20;93.80;;;;;;5073941;28;20482;-46
2021/12/21 03:41:24;;;;;;;12.37;4.27;;;-0.30;93.90;;;;;;5087258;28;20477;-47
2021/12/21 03:43:52;;;;;;;15.50;4.90;;;-0.20;94.50;;;;;;5078647;28;20501;-47
2021/12/21 03:46:19;;;;;;;10.30;4.57;;;-0.10;94.40;;;;;;5075120;28;20476;-47
2021/12/21 03:48:48;;;;;;;13.20;4.00;;;-0.10;94.00;;;;;;5087475;28;20491;-47
2021/12/21 03:51:16;;;;;;;8.57;4.67;;;-0.10;93.80;;;;;;5076977;28;20479;-46
2021/12/21 03:53:45;;;;;;;10.20;4.80;;;-0.10;94.00;;;;;;5085880;28;20467;-47
2021/12/21 03:56:36;;;;;;;7.00;3.40;;;-0.20;94.30;;;;;;5075704;28;20487;-47
2021/12/21 03:59:05;;;;;;;12.23;4.10;;;-0.10;94.30;;;;;;5084360;28;20485;-47
2021/12/21 04:01:32;;;;;;;7.30;4.87;;;-0.10;94.40;;;;;;5081028;28;20497;-46
2021/12/21 04:03:59;;;;;;;7.10;3.80;;;-0.10;94.40;;;;;;5076953;28;20484;-47
2021/12/21 04:06:25;;;;;;;5.13;3.73;;;-0.10;94.30;;;;;;5062970;28;20837;-47
2021/12/21 04:08:52;;;;;;;22.30;5.57;;;-0.20;94.30;;;;;;5094826;28;20981;-47
2021/12/21 04:11:19;;;;;;;11.23;5.17;;;-0.10;94.40;;;;;;5080975;28;20480;-46
2021/12/21 04:13:46;;;;;;;14.70;3.90;;;-0.10;94.30;;;;;;5078134;28;20478;-46
2021/12/21 04:16:14;;;;;;;10.10;5.97;;;-0.10;94.20;;;;;;5073155;28;20496;-47
2021/12/21 04:18:40;;;;;;;10.57;4.93;;;-0.10;94.20;;;;;;5067505;28;21070;-47
2021/12/21 04:21:11;;;;;;;10.50;5.27;;;-0.10;94.20;;;;;;5094393;28;21010;-46
2021/12/21 04:23:40;;;;;;;5.87;3.77;;;-0.10;94.00;;;;;;5075881;28;20484;-47
2021/12/21 04:26:07;;;;;;;9.63;4.33;;;-0.10;93.90;;;;;;5078692;28;20585;-46
2021/12/21 04:28:34;;;;;;;10.73;4.57;;;-0.20;93.90;;;;;;5077402;28;20480;-48
2021/12/21 04:31:01;;;;;;;11.90;4.10;;;-0.20;93.90;;;;;;5072382;28;20476;-53
2021/12/21 04:33:30;;;;;;;8.60;4.70;;;-0.30;93.70;;;;;;5085562;28;20454;-46
2021/12/21 04:35:57;;;;;;;9.13;4.40;;;-0.30;93.80;;;;;;5072573;28;21096;-46
2021/12/21 04:38:28;;;;;;;8.50;4.57;;;-0.30;94.00;;;;;;5081364;28;20485;-46
2021/12/21 04:41:01;;;;;;;6.17;4.33;;;-0.30;93.80;;;;;;5071543;28;20521;-46
2021/12/21 04:43:28;;;;;;;6.70;5.00;;;-0.30;93.80;;;;;;5071474;28;21171;-46
2021/12/21 04:45:55;;;;;;;7.27;3.60;;;-0.30;93.60;;;;;;5068540;28;20858;-46
2021/12/21 04:48:22;;;;;;;11.70;5.37;;;-0.30;93.80;;;;;;5080085;28;20484;-46
2021/12/21 04:50:50;;;;;;;7.30;4.40;;;-0.40;93.60;;;;;;5075690;28;20492;-47
2021/12/21 04:53:17;;;;;;;8.30;4.40;;;-0.40;93.80;;;;;;5092177;27;20495;-47
2021/12/21 04:55:44;;;;;;;10.90;6.20;;;-0.50;93.90;;;;;;5073045;28;20527;-47
2021/12/21 04:58:11;;;;;;;13.93;5.80;;;-0.50;94.10;;;;;;5083097;27;20992;-46
2021/12/21 05:00:39;;;;;;;22.30;8.60;;;-0.50;94.10;;;;;;5078761;28;20477;-47
2021/12/21 05:03:06;;;;;;;18.63;8.10;;;-0.50;94.00;;;;;;5079997;28;20487;-46
2021/12/21 05:05:33;;;;;;;18.43;7.70;;;-0.50;93.70;;;;;;5077427;28;20484;-46
2021/12/21 05:08:09;;;;;;;15.50;6.07;;;-0.50;93.70;;;;;;5065955;27;20482;-46
2021/12/21 05:10:43;;;;;;;9.47;5.53;;;-0.50;93.70;;;;;;5077787;28;20490;-46
2021/12/21 05:13:10;;;;;;;10.73;5.07;;;-0.50;93.50;;;;;;5072106;28;20483;-46
2021/12/21 05:15:37;;;;;;;14.53;6.10;;;-0.60;94.00;;;;;;5067739;28;21017;-46
2021/12/21 05:18:04;;;;;;;10.60;6.03;;;-0.60;93.50;;;;;;5068283;28;20482;-46
2021/12/21 05:20:30;;;;;;;11.70;4.47;;;-0.60;93.50;;;;;;5074830;28;20501;-46
2021/12/21 05:22:57;;;;;;;11.47;4.40;;;-0.70;93.70;;;;;;5075020;28;20495;-46
2021/12/21 05:25:25;;;;;;;7.63;4.23;;;-0.70;93.80;;;;;;5072662;28;20544;-46
2021/12/21 05:27:52;;;;;;;10.30;5.30;;;-0.70;93.90;;;;;;5071640;28;20491;-46
2021/12/21 05:30:19;;;;;;;13.53;4.83;;;-0.70;93.90;;;;;;5068227;28;20489;-46
2021/12/21 05:32:45;;;;;;;7.33;4.60;;;-0.70;94.10;;;;;;5081742;28;20483;-46
2021/12/21 05:35:12;;;;;;;16.43;4.93;;;-0.70;94.20;;;;;;5069415;28;20507;-46
2021/12/21 05:37:40;;;;;;;9.80;4.10;;;-0.70;94.30;;;;;;5090340;28;20496;-46
2021/12/21 05:40:13;;;;;;;13.80;5.47;;;-0.70;94.50;;;;;;5069961;28;20486;-46
2021/12/21 05:42:42;;;;;;;11.17;5.33;;;-0.70;94.50;;;;;;5083308;28;20506;-47
2021/12/21 05:45:11;;;;;;;7.67;4.80;;;-0.70;94.30;;;;;;5067373;28;20473;-47
2021/12/21 05:47:38;;;;;;;15.70;5.67;;;-0.60;94.30;;;;;;5075928;28;20981;-47
2021/12/21 05:50:10;;;;;;;11.93;6.33;;;-0.60;94.00;;;;;;5076331;28;21191;-46
2021/12/21 05:52:37;;;;;;;7.90;4.57;;;-0.70;93.80;;;;;;5038146;28;20487;-46
2021/12/21 05:55:05;;;;;;;18.20;4.70;;;-0.70;93.80;;;;;;5050180;28;20492;-46
2021/12/21 05:57:32;;;;;;;6.77;3.53;;;-0.70;93.70;;;;;;5077896;28;20468;-46
2021/12/21 06:00:00;;;;;;;7.57;4.20;;;-0.80;93.60;;;;;;5077040;28;20473;-46
2021/12/21 06:02:27;;;;;;;15.67;4.30;;;-0.80;93.90;;;;;;5078301;28;20486;-46
2021/12/21 06:04:54;;;;;;;10.10;3.47;;;-0.80;93.90;;;;;;5076673;28;20480;-46
2021/12/21 06:07:20;;;;;;;9.90;4.10;;;-0.80;94.10;;;;;;5079501;28;20480;-47
2021/12/21 06:09:48;;;;;;;10.00;4.40;;;-0.80;94.10;;;;;;5072660;28;20491;-46
2021/12/21 06:12:26;;;;;;;30.57;6.17;;;-0.80;94.10;;;;;;5087577;28;20577;-47
2021/12/21 06:24:06;;;;;;;9.37;4.40;;;-0.80;94.30;;;;;;5059938;28;20480;-46
2021/12/21 06:26:30;;;;;;;7.93;3.63;;;-0.80;94.00;;;;;;5053422;28;20482;-46
2021/12/21 06:28:57;;;;;;;12.10;4.90;;;-0.80;93.90;;;;;;5053015;28;21274;-46
2021/12/21 06:31:24;;;;;;;13.00;4.57;;;-0.80;94.00;;;;;;5062131;28;20899;-46
2021/12/21 06:33:53;;;;;;;16.73;5.37;;;-0.70;93.90;;;;;;5060707;28;21284;-53
2021/12/21 06:36:20;;;;;;;9.17;5.20;;;-0.80;93.80;;;;;;5057738;28;20477;-46
2021/12/21 06:38:48;;;;;;;23.53;8.77;;;-0.80;93.80;;;;;;5056485;28;20478;-46
2021/12/21 06:41:15;;;;;;;43.17;27.40;;;-0.80;93.80;;;;;;5067648;28;20496;-46
2021/12/21 06:43:42;;;;;;;31.80;14.27;;;-0.80;93.90;;;;;;5058455;28;20483;-46
2021/12/21 06:46:15;;;;;;;13.77;9.60;;;-0.90;93.90;;;;;;5067342;28;20478;-47
2021/12/21 06:51:34;;;;;;;18.57;9.97;;;-0.90;93.90;;;;;;5080737;28;20678;-46
2021/12/21 06:54:01;;;;;;;14.17;7.47;;;-0.90;94.00;;;;;;5084226;28;20479;-46
2021/12/21 06:56:28;;;;;;;14.57;7.83;;;-0.90;94.00;;;;;;5084677;28;20484;-46
2021/12/21 06:58:57;;;;;;;19.00;8.70;;;-0.90;94.00;;;;;;5082143;28;20538;-46
2021/12/21 07:01:25;;;;;;;20.10;10.03;;;-0.90;94.10;;;;;;5084283;28;20483;-47
2021/12/21 07:03:52;;;;;;;16.57;7.70;;;-0.90;94.20;;;;;;5088348;28;21033;-46
2021/12/21 07:06:20;;;;;;;16.53;8.50;;;-0.90;94.20;;;;;;5067512;28;20482;-46
2021/12/21 07:12:33;;;;;;;10.10;6.23;;;-0.90;94.10;;;;;;5041577;28;20480;-46
2021/12/21 07:20:29;;;;;;;8.50;4.90;;;-0.90;94.20;;;;;;5082032;28;20492;-46
2021/12/21 07:22:57;;;;;;;5.47;4.13;;;-0.90;94.30;;;;;;5069433;28;20550;-46
2021/12/21 07:25:25;;;;;;;9.80;5.43;;;-0.90;94.40;;;;;;5081028;28;20493;-46
2021/12/21 07:27:53;;;;;;;9.80;6.17;;;-0.80;93.80;;;;;;5069072;28;20487;-46
2021/12/21 07:30:20;;;;;;;17.93;6.90;;;-0.80;93.80;;;;;;5079914;28;20487;-47
2021/12/21 07:32:48;;;;;;;13.10;6.63;;;-0.80;93.80;;;;;;5082616;28;20541;-47
2021/12/21 07:35:15;;;;;;;22.00;8.43;;;-0.80;93.70;;;;;;5083172;28;20489;-46
2021/12/21 07:37:42;;;;;;;16.97;6.90;;;-0.70;93.70;;;;;;5082014;28;20469;-46
2021/12/21 07:40:10;;;;;;;12.67;7.10;;;-0.80;93.50;;;;;;5082780;28;20467;-46
2021/12/21 07:42:37;;;;;;;11.70;6.43;;;-0.80;93.30;;;;;;5081358;28;20944;-46
2021/12/21 07:45:06;;;;;;;23.40;9.80;;;-0.80;93.40;;;;;;5082137;28;20496;-46
2021/12/21 07:47:33;;;;;;;20.23;12.97;;;-0.80;93.60;;;;;;5080634;28;20553;-46
2021/12/21 07:50:00;;;;;;;17.83;9.67;;;-0.80;93.70;;;;;;5081677;28;20481;-46
2021/12/21 07:52:27;;;;;;;20.40;6.43;;;-0.80;93.70;;;;;;5081142;28;20471;-47
2021/12/21 07:54:54;;;;;;;13.40;8.40;;;-0.80;93.90;;;;;;5081867;28;20489;-46
2021/12/21 07:57:21;;;;;;;13.47;6.07;;;-0.70;93.80;;;;;;5079110;28;20484;-47
2021/12/21 07:59:48;;;;;;;12.10;7.70;;;-0.70;93.80;;;;;;5080129;28;20481;-47
2021/12/21 08:02:17;;;;;;;15.73;11.10;;;-0.70;93.90;;;;;;5083314;28;20609;-46
2021/12/21 08:04:44;;;;;;;28.83;17.37;;;-0.70;93.90;;;;;;5073560;28;20490;-47
2021/12/21 08:07:16;;;;;;;21.00;13.03;;;-0.70;93.90;;;;;;5085970;28;20494;-46
2021/12/21 08:09:47;;;;;;;13.13;7.23;;;-0.70;93.90;;;;;;5093937;28;20472;-47
2021/12/21 08:12:16;;;;;;;12.30;5.93;;;-0.70;93.90;;;;;;5082427;28;20473;-46
2021/12/21 08:14:44;;;;;;;16.03;5.70;;;-0.80;93.90;;;;;;5081011;28;20503;-50
2021/12/21 08:17:11;;;;;;;12.43;6.40;;;-0.80;94.10;;;;;;5079741;28;20842;-46
2021/12/21 08:19:39;;;;;;;13.90;6.17;;;-0.70;94.20;;;;;;5080797;28;20477;-47
2021/12/21 08:22:06;;;;;;;9.80;6.00;;;-0.70;94.30;;;;;;5082172;28;20992;-46
2021/12/21 08:24:34;;;;;;;11.03;6.50;;;-0.60;94.30;;;;;;5081703;28;21095;-46
2021/12/21 08:27:04;;;;;;;23.10;8.00;;;-0.50;94.60;;;;;;5078704;28;20493;-47
2021/12/21 08:29:31;;;;;;;18.10;9.40;;;0.50;96.70;;;;;;5071343;28;20491;-47
2021/12/21 08:31:58;;;;;;;19.90;10.93;;;1.80;98.30;;;;;;5077522;28;20509;-47
2021/12/21 08:34:25;;;;;;;16.17;9.57;;;3.10;97.30;;;;;;5082636;28;20473;-47
2021/12/21 08:36:53;;;;;;;18.17;12.17;;;4.40;95.50;;;;;;5077995;28;20481;-48
2021/12/21 08:39:23;;;;;;;16.63;10.73;;;5.60;93.30;;;;;;5078691;28;20481;-47
2021/12/21 08:41:56;;;;;;;16.40;9.57;;;6.60;91.90;;;;;;5079306;28;20509;-48
2021/12/21 08:44:24;;;;;;;14.80;9.10;;;7.40;90.70;;;;;;5078766;28;20489;-47
2021/12/21 08:46:51;;;;;;;10.47;8.20;;;8.10;89.30;;;;;;5080670;28;20483;-48
2021/12/21 08:49:18;;;;;;;12.80;10.47;;;8.60;88.00;;;;;;5081211;28;20480;-51
2021/12/21 08:51:45;;;;;;;20.23;9.10;;;9.10;87.30;;;;;;5080977;28;20480;-48
2021/12/21 08:54:13;;;;;;;16.60;10.90;;;9.40;84.70;;;;;;5080586;28;21000;-47
2021/12/21 08:56:40;;;;;;;20.90;11.10;;;9.70;84.60;;;;;;5081104;28;20482;-47
2021/12/21 08:59:10;;;;;;;18.33;11.13;;;9.80;84.20;;;;;;5078702;28;20562;-47
2021/12/21 09:01:37;;;;;;;23.67;12.63;;;9.90;84.60;;;;;;5076998;28;20579;-47
2021/12/21 09:04:04;;;;;;;16.00;10.80;;;10.10;83.00;;;;;;5079448;28;20971;-47
2021/12/21 09:06:31;;;;;;;12.50;8.00;;;10.10;82.60;;;;;;5076109;28;20483;-47
2021/12/21 09:08:58;;;;;;;9.07;7.00;;;10.10;82.70;;;;;;5048566;28;20476;-47
2021/12/21 09:11:26;;;;;;;13.83;8.80;;;10.00;83.40;;;;;;5083289;28;20494;-46
2021/12/21 09:13:53;;;;;;;9.90;7.50;;;9.90;85.10;;;;;;5078505;28;20473;-47
2021/12/21 09:16:20;;;;;;;12.30;6.83;;;9.80;85.50;;;;;;5079153;28;20523;-46
2021/12/21 09:18:47;;;;;;;12.27;7.43;;;9.50;83.50;;;;;;5080365;28;20488;-46
2021/12/21 09:21:14;;;;;;;11.10;6.40;;;9.30;85.10;;;;;;5083225;28;20532;-46
2021/12/21 09:23:41;;;;;;;8.37;6.60;;;9.10;85.60;;;;;;5078467;28;20477;-46
2021/12/21 09:26:08;;;;;;;13.20;6.80;;;9.00;85.90;;;;;;5078809;28;20473;-46
2021/12/21 09:28:36;;;;;;;15.90;6.30;;;8.70;85.00;;;;;;5079323;28;20491;-46
2021/12/21 09:31:03;;;;;;;14.20;6.47;;;8.50;85.50;;;;;;5080818;28;20480;-46
2021/12/21 09:33:30;;;;;;;13.23;6.67;;;8.30;86.10;;;;;;5076322;28;20516;-45
2021/12/21 09:35:56;;;;;;;10.30;6.93;;;8.10;86.30;;;;;;5078751;28;20490;-46
2021/12/21 09:38:23;;;;;;;9.53;6.53;;;8.00;87.80;;;;;;5080960;28;20491;-46
2021/12/21 09:40:51;;;;;;;10.17;6.07;;;7.90;88.30;;;;;;5076738;28;20564;-45
2021/12/21 09:43:18;;;;;;;12.43;6.60;;;7.70;87.60;;;;;;5084401;28;20489;-45
2021/12/21 09:45:46;;;;;;;12.60;7.07;;;7.60;88.10;;;;;;5078869;28;20496;-45
2021/12/21 09:48:13;;;;;;;10.83;6.10;;;7.60;89.60;;;;;;5089530;28;20480;-45
2021/12/21 09:50:42;;;;;;;14.20;4.90;;;7.50;88.00;;;;;;5083990;28;20492;-46
2021/12/21 09:53:09;;;;;;;13.90;9.20;;;7.40;88.90;;;;;;5083504;28;20556;-45
2021/12/21 09:55:35;;;;;;;17.80;7.13;;;7.40;89.80;;;;;;5076719;28;20493;-45
2021/12/21 09:58:02;;;;;;;11.50;7.13;;;7.40;89.70;;;;;;5090128;28;20478;-45
2021/12/21 10:00:33;;;;;;;10.87;6.97;;;7.40;88.90;;;;;;5078925;28;20863;-45
2021/12/21 10:03:04;;;;;;;6.07;5.27;;;7.40;89.50;;;;;;5074380;28;20490;-45
2021/12/21 10:05:34;;;;;;;8.80;4.90;;;7.30;88.10;;;;;;5068882;28;20907;-45
2021/12/21 10:08:03;;;;;;;12.03;6.27;;;7.20;88.40;;;;;;5084005;28;20480;-45
2021/12/21 10:10:34;;;;;;;12.43;5.73;;;7.10;89.20;;;;;;5083382;28;20475;-45
2021/12/21 10:13:11;;;;;;;11.00;6.60;;;7.10;89.40;;;;;;5082850;28;20565;-45
2021/12/21 10:15:41;;;;;;;9.27;5.90;;;7.10;89.30;;;;;;5080318;28;20480;-45
2021/12/21 10:18:12;;;;;;;10.90;8.47;;;7.00;88.70;;;;;;5082418;28;20483;-45
2021/12/21 10:20:42;;;;;;;13.80;8.17;;;7.10;90.10;;;;;;5076303;28;20480;-54
2021/12/21 10:23:12;;;;;;;9.97;4.97;;;7.10;90.20;;;;;;5081008;28;20476;-45
2021/12/21 10:25:48;;;;;;;13.03;5.30;;;7.10;90.20;;;;;;5080478;28;20954;-52
2021/12/21 10:28:30;;;;;;;10.30;5.63;;;7.20;89.50;;;;;;5082236;28;20489;-45
2021/12/21 10:30:58;;;;;;;23.67;6.27;;;7.10;88.90;;;;;;5071904;28;21063;-49
2021/12/21 10:33:28;;;;;;;10.53;5.00;;;7.10;89.90;;;;;;5045983;28;20468;-45
2021/12/21 10:35:57;;;;;;;11.80;6.23;;;7.10;89.40;;;;;;5086906;28;20475;-45
2021/12/21 10:38:31;;;;;;;12.87;5.50;;;7.10;90.00;;;;;;5081278;28;20486;-45
2021/12/21 10:41:00;;;;;;;7.33;4.37;;;7.10;89.80;;;;;;5081675;28;20470;-45
2021/12/21 10:43:29;;;;;;;10.50;7.40;;;7.00;89.40;;;;;;5057974;28;20966;-45
2021/12/21 10:45:56;;;;;;;13.80;4.90;;;6.90;89.70;;;;;;5085924;28;20908;-45
2021/12/21 10:48:23;;;;;;;9.53;4.93;;;6.80;89.70;;;;;;5083231;28;20474;-45
2021/12/21 10:50:52;;;;;;;8.23;3.97;;;6.70;89.70;;;;;;5082131;28;20480;-45
2021/12/21 10:53:21;;;;;;;10.20;5.00;;;6.70;90.00;;;;;;5084108;28;20564;-45
2021/12/21 10:56:00;;;;;;;9.50;5.53;;;6.80;90.50;;;;;;5082604;28;20489;-45
2021/12/21 10:58:28;;;;;;;7.00;6.23;;;6.90;90.60;;;;;;5083397;28;20544;-45
2021/12/21 11:00:57;;;;;;;12.20;4.87;;;7.10;90.90;;;;;;5083910;28;20488;-45
2021/12/21 11:03:32;;;;;;;15.23;5.03;;;7.20;89.90;;;;;;5086505;28;20487;-45
2021/12/21 11:06:11;;;;;;;9.30;5.53;;;7.20;89.20;;;;;;5078722;28;20512;-46
2021/12/21 11:08:38;;;;;;;6.27;4.73;;;7.10;88.80;;;;;;5081539;28;20485;-45
2021/12/21 11:11:10;;;;;;;6.57;3.77;;;7.10;89.50;;;;;;5077968;28;20474;-45
2021/12/21 11:13:37;;;;;;;5.17;3.50;;;7.10;89.70;;;;;;5083162;28;20977;-45
2021/12/21 11:16:07;;;;;;;7.60;4.20;;;7.00;88.50;;;;;;5081630;28;20512;-46
2021/12/21 11:18:37;;;;;;;13.10;5.03;;;6.90;88.60;;;;;;5081528;28;20978;-46
2021/12/21 11:21:06;;;;;;;9.77;4.17;;;6.90;89.10;;;;;;5083631;28;20886;-45
2021/12/21 11:23:35;;;;;;;6.67;4.23;;;6.90;89.20;;;;;;5082423;28;20471;-45
2021/12/21 11:26:03;;;;;;;13.40;6.43;;;6.90;90.00;;;;;;5075841;28;20482;-45
2021/12/21 11:28:36;;;;;;;11.33;4.50;;;6.90;89.60;;;;;;5054017;28;21938;-45
2021/12/21 11:31:04;;;;;;;7.13;3.90;;;7.00;90.00;;;;;;5082828;28;20542;-45
2021/12/21 11:33:36;;;;;;;8.00;4.17;;;7.00;89.20;;;;;;5053919;28;21171;-45
2021/12/21 11:38:50;;;;;;;9.13;4.40;;;7.00;88.90;;;;;;5076654;28;20784;-46
2021/12/21 11:41:18;;;;;;;9.03;5.07;;;6.90;88.60;;;;;;5080274;28;20496;-46
2021/12/21 11:43:55;;;;;;;5.27;3.47;;;6.80;88.60;;;;;;5081848;28;20998;-45
2021/12/21 11:46:32;;;;;;;4.07;3.17;;;6.80;88.50;;;;;;5082263;28;20499;-46
2021/12/21 11:49:03;;;;;;;4.80;3.03;;;6.80;89.70;;;;;;5082399;28;20969;-46
2021/12/21 11:51:31;;;;;;;4.93;4.00;;;6.80;89.50;;;;;;5082633;28;20485;-45
2021/12/21 11:53:59;;;;;;;11.43;3.70;;;6.80;89.60;;;;;;5082816;28;20484;-46
2021/12/21 11:56:28;;;;;;;8.00;3.80;;;6.80;89.20;;;;;;5079256;28;20487;-45
2021/12/21 11:58:56;;;;;;;14.03;3.60;;;6.80;88.80;;;;;;5082368;28;20476;-46
2021/12/21 12:01:26;;;;;;;4.90;3.40;;;6.80;90.00;;;;;;5076658;28;20499;-46
2021/12/21 12:04:01;;;;;;;6.97;4.43;;;6.80;89.50;;;;;;5088641;28;20559;-47
2021/12/21 12:06:29;;;;;;;4.53;3.80;;;6.90;89.80;;;;;;5072998;28;21090;-46
2021/12/21 12:09:03;;;;;;;6.20;3.40;;;7.00;89.40;;;;;;5083586;28;20489;-46
2021/12/21 12:11:35;;;;;;;6.67;4.10;;;7.00;88.40;;;;;;5078724;28;20495;-46
2021/12/21 12:14:08;;;;;;;4.20;3.30;;;7.10;89.30;;;;;;5081034;28;20487;-47
2021/12/21 12:16:44;;;;;;;6.47;3.00;;;7.10;88.00;;;;;;5045269;28;20621;-46
2021/12/21 12:19:13;;;;;;;6.03;3.97;;;7.00;87.20;;;;;;5073086;28;20482;-46
2021/12/21 12:21:40;;;;;;;6.90;3.30;;;7.00;88.10;;;;;;5074769;28;20496;-46
2021/12/21 12:24:18;;;;;;;5.53;3.17;;;7.10;87.70;;;;;;5069492;28;20485;-46
2021/12/21 12:26:57;;;;;;;9.20;3.67;;;7.10;87.70;;;;;;5044603;28;20501;-47
2021/12/21 12:29:25;;;;;;;6.60;3.27;;;7.00;87.80;;;;;;5066995;28;20479;-46
2021/12/21 12:32:03;;;;;;;5.70;3.83;;;7.00;87.10;;;;;;5070262;28;20497;-50
2021/12/21 12:34:34;;;;;;;6.40;3.43;;;7.00;87.40;;;;;;5068338;28;20485;-46
2021/12/21 12:37:13;;;;;;;5.73;2.97;;;7.00;87.60;;;;;;5070405;28;20488;-46
2021/12/21 12:39:44;;;;;;;4.50;3.00;;;7.10;88.10;;;;;;5063471;28;20485;-46
2021/12/21 12:42:12;;;;;;;7.80;4.27;;;7.20;87.70;;;;;;5067979;28;20534;-46
2021/12/21 12:44:41;;;;;;;10.50;5.27;;;7.20;87.40;;;;;;5081156;28;20482;-46
2021/12/21 12:47:10;;;;;;;4.93;3.03;;;7.30;88.50;;;;;;5070345;28;20507;-46
2021/12/21 12:49:41;;;;;;;4.10;3.03;;;7.30;86.60;;;;;;5072602;28;20480;-53
2021/12/21 12:52:13;;;;;;;6.00;2.90;;;7.30;86.80;;;;;;5084175;28;20551;-46
2021/12/21 12:54:47;;;;;;;5.87;4.00;;;7.30;86.30;;;;;;5082537;28;20480;-46
2021/12/21 12:57:26;;;;;;;5.30;3.00;;;7.30;87.10;;;;;;5079444;28;20918;-46
2021/12/21 12:59:54;;;;;;;3.30;2.73;;;7.40;87.40;;;;;;5071669;28;20534;-47
2021/12/21 13:02:21;;;;;;;3.87;3.07;;;7.50;87.50;;;;;;5079238;28;20473;-46
2021/12/21 13:04:49;;;;;;;5.30;3.03;;;7.40;86.50;;;;;;5057904;28;20489;-46
2021/12/21 13:07:24;;;;;;;7.73;4.13;;;7.50;86.30;;;;;;5074006;28;20478;-46
2021/12/21 13:10:01;;;;;;;5.93;3.27;;;7.50;87.30;;;;;;5060148;28;20508;-46
2021/12/21 13:12:29;;;;;;;10.97;4.07;;;7.50;86.20;;;;;;5067809;28;20488;-46
2021/12/21 13:14:56;;;;;;;7.67;3.70;;;7.50;85.40;;;;;;5068839;28;20480;-46
2021/12/21 13:17:23;;;;;;;3.07;2.63;;;7.50;86.40;;;;;;5080322;28;20511;-46
2021/12/21 13:19:50;;;;;;;3.93;3.27;;;7.50;86.00;;;;;;5069662;28;20497;-47
2021/12/21 13:22:23;;;;;;;4.20;3.20;;;7.50;86.10;;;;;;5045561;28;20489;-46
2021/12/21 13:24:51;;;;;;;3.97;2.90;;;7.50;85.60;;;;;;5059683;28;20562;-46
2021/12/21 13:27:21;;;;;;;4.60;2.70;;;7.50;85.70;;;;;;5079124;28;20480;-47
2021/12/21 13:29:49;;;;;;;6.17;3.10;;;7.50;85.90;;;;;;5073995;28;20894;-46
2021/12/21 13:32:18;;;;;;;6.50;2.53;;;7.50;85.30;;;;;;5080458;28;20548;-48